createdAt,value
2022-10-18T00:02:02.930Z,14.48
2022-10-18T00:04:29.322Z,14.46
2022-10-18T00:06:55.837Z,14.42
2022-10-18T00:09:22.228Z,14.42
2022-10-18T00:11:48.526Z,14.43
2022-10-18T00:14:14.875Z,14.46
2022-10-18T00:16:41.256Z,14.46
2022-10-18T00:19:07.582Z,14.51
2022-10-18T00:21:34.054Z,14.47
2022-10-18T00:24:00.461Z,14.48
2022-10-18T00:26:28.666Z,14.53
2022-10-18T00:28:57.534Z,14.49
2022-10-18T00:31:29.412Z,14.52
2022-10-18T00:33:58.797Z,14.55
2022-10-18T00:36:26.898Z,14.55
2022-10-18T00:38:53.601Z,14.53
2022-10-18T00:41:23.013Z,14.47
2022-10-18T00:43:57.977Z,14.48
2022-10-18T00:46:26.386Z,14.50
2022-10-18T00:51:31.811Z,14.44
2022-10-18T00:53:58.682Z,14.41
2022-10-18T00:56:25.740Z,14.43
2022-10-18T00:58:52.567Z,14.41
2022-10-18T01:01:19.009Z,14.39
2022-10-18T01:03:45.471Z,14.35
2022-10-18T01:06:11.830Z,14.40
2022-10-18T01:09:18.787Z,14.37
2022-10-18T01:12:03.096Z,14.34
2022-10-18T01:14:46.338Z,14.25
2022-10-18T01:17:28.003Z,14.16
2022-10-18T01:20:12.722Z,14.20
2022-10-18T01:22:56.406Z,14.24
2022-10-18T01:25:50.301Z,14.22
2022-10-18T01:28:39.319Z,14.24
2022-10-18T01:31:23.246Z,14.10
2022-10-18T01:33:54.982Z,14.06
2022-10-18T01:36:27.367Z,14.09
2022-10-18T01:38:57.431Z,13.99
2022-10-18T01:41:25.472Z,14.01
2022-10-18T01:43:58.326Z,13.94
2022-10-18T01:46:25.769Z,13.96
2022-10-18T01:48:53.458Z,13.92
2022-10-18T01:51:24.851Z,13.85
2022-10-18T01:53:51.245Z,13.73
2022-10-18T01:56:59.007Z,13.72
2022-10-18T01:59:56.492Z,13.63
2022-10-18T02:02:49.938Z,13.51
2022-10-18T02:05:38.443Z,13.52
2022-10-18T02:08:22.780Z,13.47
2022-10-18T02:10:56.607Z,13.39
2022-10-18T02:13:25.625Z,13.35
2022-10-18T02:15:59.312Z,13.36
2022-10-18T02:18:32.546Z,13.31
2022-10-18T02:21:01.321Z,13.32
2022-10-18T02:23:27.822Z,13.21
2022-10-18T02:25:54.387Z,13.24
2022-10-18T02:28:21.751Z,13.23
2022-10-18T02:31:05.911Z,13.22
2022-10-18T02:33:32.109Z,13.25
2022-10-18T02:36:06.059Z,13.19
2022-10-18T02:38:33.142Z,13.22
2022-10-18T02:40:59.569Z,13.14
2022-10-18T02:43:26.583Z,13.11
2022-10-18T02:45:53.205Z,13.10
2022-10-18T02:48:19.485Z,13.13
2022-10-18T02:50:45.802Z,13.05
2022-10-18T02:53:12.123Z,13.01
2022-10-18T02:55:38.453Z,12.93
2022-10-18T02:58:04.762Z,12.97
2022-10-18T03:00:31.090Z,12.96
2022-10-18T03:02:57.401Z,12.89
2022-10-18T03:05:23.759Z,12.87
2022-10-18T03:07:50.070Z,12.87
2022-10-18T03:10:16.515Z,12.86
2022-10-18T03:12:42.854Z,12.91
2022-10-18T03:15:09.614Z,12.92
2022-10-18T03:17:35.915Z,12.94
2022-10-18T03:20:02.311Z,12.90
2022-10-18T03:24:59.819Z,12.90
2022-10-18T03:27:26.132Z,12.85
2022-10-18T03:29:52.431Z,12.87
2022-10-18T03:32:18.780Z,12.84
2022-10-18T03:34:45.146Z,12.78
2022-10-18T03:37:11.482Z,12.87
2022-10-18T03:39:37.777Z,12.90
2022-10-18T03:42:04.197Z,12.87
2022-10-18T03:44:30.522Z,12.86
2022-10-18T03:46:56.845Z,12.96
2022-10-18T03:49:23.222Z,12.92
2022-10-18T03:51:49.562Z,12.95
2022-10-18T03:54:15.925Z,13.02
2022-10-18T03:56:42.237Z,13.04
2022-10-18T03:59:08.533Z,13.04
2022-10-18T04:01:34.968Z,13.00
2022-10-18T04:04:01.339Z,13.06
2022-10-18T04:06:27.636Z,13.05
2022-10-18T04:08:54.937Z,13.02
2022-10-18T04:11:21.283Z,13.04
2022-10-18T04:13:47.569Z,13.03
2022-10-18T04:16:13.882Z,13.01
2022-10-18T04:18:40.264Z,12.98
2022-10-18T04:21:06.626Z,12.95
2022-10-18T04:23:36.314Z,12.95
2022-10-18T04:26:05.016Z,12.97
2022-10-18T04:28:36.908Z,12.93
2022-10-18T04:31:03.301Z,12.93
2022-10-18T04:33:29.626Z,12.95
2022-10-18T04:35:56.106Z,12.89
2022-10-18T04:38:22.494Z,12.89
2022-10-18T04:40:48.834Z,12.88
2022-10-18T04:43:15.570Z,12.89
2022-10-18T04:45:42.118Z,12.83
2022-10-18T04:48:08.450Z,12.80
2022-10-18T04:50:34.733Z,12.83
2022-10-18T04:53:01.028Z,12.80
2022-10-18T04:55:27.366Z,12.83
2022-10-18T04:57:53.753Z,12.83
2022-10-18T05:00:20.216Z,12.78
2022-10-18T05:02:46.564Z,12.71
2022-10-18T05:05:14.169Z,12.76
2022-10-18T05:07:40.913Z,12.72
2022-10-18T05:10:07.904Z,12.64
2022-10-18T05:12:34.627Z,12.62
2022-10-18T05:15:01.258Z,12.65
2022-10-18T05:17:27.597Z,12.61
2022-10-18T05:19:53.886Z,12.66
2022-10-18T05:22:20.195Z,12.65
2022-10-18T05:24:46.520Z,12.61
2022-10-18T05:27:12.823Z,12.65
2022-10-18T05:29:39.158Z,12.54
2022-10-18T05:32:05.511Z,12.62
2022-10-18T05:34:31.889Z,12.54
2022-10-18T05:36:59.161Z,12.54
2022-10-18T05:39:25.554Z,12.43
2022-10-18T05:41:51.873Z,12.49
2022-10-18T05:44:18.196Z,12.44
2022-10-18T05:46:44.534Z,12.42
2022-10-18T05:49:13.885Z,12.43
2022-10-18T05:51:40.194Z,12.30
2022-10-18T05:54:06.572Z,12.30
2022-10-18T05:56:32.975Z,12.23
2022-10-18T05:58:59.333Z,12.20
2022-10-18T06:01:25.675Z,12.15
2022-10-18T06:03:51.976Z,12.16
2022-10-18T06:06:18.300Z,12.08
2022-10-18T06:08:44.660Z,12.09
2022-10-18T06:11:14.568Z,12.07
2022-10-18T06:13:48.450Z,12.02
2022-10-18T06:16:17.110Z,12.05
2022-10-18T06:18:43.627Z,12.03
2022-10-18T06:21:10.117Z,12.02
2022-10-18T06:23:36.462Z,11.95
2022-10-18T06:26:05.582Z,12.00
2022-10-18T06:28:35.124Z,11.91
2022-10-18T06:31:01.797Z,11.89
2022-10-18T06:33:28.152Z,11.89
2022-10-18T06:35:59.859Z,11.86
2022-10-18T06:38:27.008Z,11.84
2022-10-18T06:40:53.906Z,11.80
2022-10-18T06:43:21.635Z,11.89
2022-10-18T06:45:48.925Z,11.92
2022-10-18T06:48:15.599Z,11.88
2022-10-18T06:50:42.136Z,11.88
2022-10-18T06:53:08.572Z,11.90
2022-10-18T06:55:35.240Z,11.98
2022-10-18T06:58:01.984Z,11.99
2022-10-18T07:00:28.434Z,11.99
2022-10-18T07:02:54.793Z,12.05
2022-10-18T07:05:21.167Z,12.08
2022-10-18T07:07:47.523Z,12.22
2022-10-18T07:10:13.809Z,12.24
2022-10-18T07:12:40.098Z,12.40
2022-10-18T07:15:09.304Z,12.44
2022-10-18T07:17:35.956Z,12.50
2022-10-18T07:20:02.458Z,12.61
2022-10-18T07:22:30.346Z,12.68
2022-10-18T07:24:56.827Z,12.73
2022-10-18T07:27:23.209Z,12.72
2022-10-18T07:29:49.705Z,12.72
2022-10-18T07:32:16.038Z,12.69
2022-10-18T07:34:42.353Z,12.79
2022-10-18T07:37:08.714Z,12.98
2022-10-18T07:39:35.014Z,13.04
2022-10-18T07:42:01.358Z,13.20
2022-10-18T07:44:27.687Z,13.31
2022-10-18T07:46:53.995Z,13.43
2022-10-18T07:49:20.426Z,13.58
2022-10-18T07:51:46.835Z,13.73
2022-10-18T07:54:13.178Z,13.93
2022-10-18T07:56:39.472Z,13.98
2022-10-18T07:59:05.848Z,14.09
2022-10-18T08:01:32.159Z,14.14
2022-10-18T08:04:01.048Z,14.07
2022-10-18T08:06:29.684Z,14.22
2022-10-18T08:08:56.254Z,14.35
2022-10-18T08:11:24.486Z,14.49
2022-10-18T08:13:52.580Z,14.68
2022-10-18T08:16:21.681Z,14.83
2022-10-18T08:18:48.757Z,14.84
2022-10-18T08:21:16.790Z,14.94
2022-10-18T08:23:43.537Z,15.12
2022-10-18T08:26:13.059Z,15.44
2022-10-18T08:28:39.765Z,15.76
2022-10-18T08:31:10.665Z,16.07
2022-10-18T08:33:37.256Z,16.62
2022-10-18T08:36:06.007Z,17.18
2022-10-18T08:38:36.440Z,17.86
2022-10-18T08:41:19.711Z,18.57
2022-10-18T08:44:07.207Z,19.13
2022-10-18T08:46:36.357Z,19.59
2022-10-18T08:49:05.485Z,19.45
2022-10-18T08:51:45.133Z,19.73
2022-10-18T08:54:20.945Z,20.04
2022-10-18T08:56:59.700Z,20.57
2022-10-18T08:59:28.977Z,20.96
2022-10-18T09:02:10.594Z,21.04
2022-10-18T09:04:45.781Z,21.39
2022-10-18T09:07:36.748Z,21.81
2022-10-18T09:10:09.545Z,22.22
2022-10-18T09:12:38.877Z,22.54
2022-10-18T09:15:20.356Z,22.75
2022-10-18T09:18:06.893Z,22.77
2022-10-18T09:21:17.308Z,22.84
2022-10-18T09:23:58.484Z,22.93
2022-10-18T09:26:25.550Z,22.97
2022-10-18T09:29:29.370Z,23.01
2022-10-18T09:32:14.085Z,22.97
2022-10-18T09:35:03.089Z,22.81
2022-10-18T09:37:33.247Z,22.69
2022-10-18T09:40:19.865Z,22.53
2022-10-18T09:42:55.651Z,22.38
2022-10-18T09:45:30.858Z,22.37
2022-10-18T09:48:28.113Z,22.24
2022-10-18T09:51:11.269Z,22.07
2022-10-18T09:53:54.381Z,21.94
2022-10-18T09:56:44.168Z,21.83
2022-10-18T09:59:17.358Z,21.78
2022-10-18T10:01:43.659Z,21.73
2022-10-18T10:04:09.975Z,21.64
2022-10-18T10:06:36.758Z,21.60
2022-10-18T10:09:14.197Z,21.53
2022-10-18T10:11:48.650Z,21.39
2022-10-18T10:14:17.988Z,21.39
2022-10-18T10:16:59.291Z,21.29
2022-10-18T10:19:40.060Z,21.09
2022-10-18T10:22:10.278Z,20.27
2022-10-18T10:24:50.347Z,19.69
2022-10-18T10:27:22.022Z,19.23
2022-10-18T10:29:51.912Z,18.81
2022-10-18T10:32:21.232Z,18.98
2022-10-18T10:34:47.640Z,19.19
2022-10-18T10:37:22.803Z,19.57
2022-10-18T10:40:20.481Z,19.60
2022-10-18T10:43:08.920Z,19.65
2022-10-18T10:45:58.854Z,19.59
2022-10-18T10:48:29.901Z,19.56
2022-10-18T10:51:03.098Z,19.27
2022-10-18T10:53:41.418Z,19.12
2022-10-18T10:56:23.498Z,18.63
2022-10-18T10:58:51.328Z,18.56
2022-10-18T11:01:24.572Z,18.71
2022-10-18T11:03:53.759Z,18.82
2022-10-18T11:06:57.153Z,18.97
2022-10-18T11:09:45.117Z,19.04
2022-10-18T11:12:21.917Z,19.04
2022-10-18T11:14:55.869Z,19.20
2022-10-18T11:17:39.743Z,19.40
2022-10-18T11:20:09.153Z,19.48
2022-10-18T11:22:55.773Z,19.53
2022-10-18T11:25:25.582Z,19.06
2022-10-18T11:28:03.756Z,19.00
2022-10-18T11:30:50.502Z,18.94
2022-10-18T11:33:56.242Z,18.81
2022-10-18T11:36:31.217Z,18.55
2022-10-18T11:39:06.526Z,18.47
2022-10-18T11:41:43.781Z,18.42
2022-10-18T11:44:24.352Z,18.42
2022-10-18T11:46:50.632Z,18.48
2022-10-18T11:49:44.894Z,18.39
2022-10-18T11:52:33.158Z,18.65
2022-10-18T11:55:13.848Z,18.80
2022-10-18T11:57:50.086Z,19.01
2022-10-18T12:00:32.667Z,19.00
2022-10-18T12:02:59.051Z,19.22
2022-10-18T12:05:26.659Z,19.34
2022-10-18T12:08:13.059Z,19.42
2022-10-18T12:10:53.108Z,19.23
2022-10-18T12:13:32.317Z,19.24
2022-10-18T12:16:00.633Z,19.33
2022-10-18T12:18:27.885Z,19.40
2022-10-18T12:20:59.217Z,19.36
2022-10-18T12:23:52.698Z,19.48
2022-10-18T12:26:20.415Z,19.59
2022-10-18T12:29:00.419Z,19.68
2022-10-18T12:31:34.626Z,19.77
2022-10-18T12:34:09.202Z,19.69
2022-10-18T12:36:59.745Z,19.48
2022-10-18T12:39:43.376Z,19.15
2022-10-18T12:42:20.619Z,18.31
2022-10-18T12:44:47.615Z,17.94
2022-10-18T12:47:25.222Z,17.58
2022-10-18T12:50:00.256Z,17.45
2022-10-18T12:52:29.178Z,17.47
2022-10-18T12:55:29.613Z,17.30
2022-10-18T12:57:58.948Z,17.39
2022-10-18T13:00:31.497Z,17.64
2022-10-18T13:03:10.235Z,17.38
2022-10-18T13:05:53.325Z,17.33
2022-10-18T13:08:29.010Z,17.18
2022-10-18T13:11:01.268Z,17.41
2022-10-18T13:13:40.086Z,17.17
2022-10-18T13:16:22.281Z,17.30
2022-10-18T13:19:10.906Z,16.97
2022-10-18T13:21:59.007Z,17.11
2022-10-18T13:24:45.487Z,16.99
2022-10-18T13:27:35.076Z,17.12
2022-10-18T13:30:22.869Z,16.82
2022-10-18T13:33:11.154Z,16.67
2022-10-18T13:35:56.724Z,16.45
2022-10-18T13:39:01.222Z,16.37
2022-10-18T13:41:34.549Z,16.32
2022-10-18T13:44:01.916Z,16.39
2022-10-18T13:46:34.515Z,16.28
2022-10-18T13:49:19.014Z,16.31
2022-10-18T13:52:06.806Z,16.20
2022-10-18T13:55:10.886Z,16.19
2022-10-18T13:57:55.912Z,16.21
2022-10-18T14:00:51.537Z,16.12
2022-10-18T14:03:55.771Z,16.05
2022-10-18T14:06:25.451Z,15.94
2022-10-18T14:09:19.321Z,15.99
2022-10-18T14:11:56.727Z,16.14
2022-10-18T14:14:45.937Z,16.22
2022-10-18T14:17:31.273Z,16.29
2022-10-18T14:20:13.818Z,16.24
2022-10-18T14:23:27.612Z,16.15
2022-10-18T14:26:06.885Z,15.94
2022-10-18T14:28:55.047Z,15.92
2022-10-18T14:31:20.066Z,15.86
2022-10-18T14:33:57.080Z,15.80
2022-10-18T14:36:27.226Z,15.76
2022-10-18T14:38:59.580Z,15.69
2022-10-18T14:41:28.628Z,15.71
2022-10-18T14:44:16.617Z,15.83
2022-10-18T14:46:46.289Z,15.90
2022-10-18T14:49:14.576Z,15.93
2022-10-18T14:51:43.305Z,15.94
2022-10-18T14:54:39.230Z,15.98
2022-10-18T14:57:07.128Z,15.99
2022-10-18T14:59:55.109Z,15.88
2022-10-18T15:02:26.685Z,15.82
2022-10-18T15:04:59.743Z,15.65
2022-10-18T15:07:27.082Z,15.59
2022-10-18T15:09:53.551Z,15.50
2022-10-18T15:12:20.270Z,15.38
2022-10-18T15:14:47.702Z,15.22
2022-10-18T15:17:20.435Z,15.18
2022-10-18T15:20:18.377Z,15.04
2022-10-18T15:22:45.282Z,15.05
2022-10-18T15:25:13.861Z,15.09
2022-10-18T15:30:22.757Z,14.78
2022-10-18T15:32:52.142Z,14.70
2022-10-18T15:35:26.556Z,14.75
2022-10-18T15:37:54.816Z,14.77
2022-10-18T15:40:24.152Z,14.69
2022-10-18T15:42:55.701Z,14.59
2022-10-18T15:45:31.128Z,14.53
2022-10-18T15:48:01.355Z,14.48
2022-10-18T15:50:38.384Z,14.38
2022-10-18T15:53:22.797Z,14.38
2022-10-18T15:55:55.789Z,14.28
2022-10-18T15:58:26.558Z,14.20
2022-10-18T16:00:57.398Z,14.11
2022-10-18T16:03:23.968Z,14.00
2022-10-18T16:05:55.727Z,13.95
2022-10-18T16:08:24.805Z,13.90
2022-10-18T16:10:51.362Z,13.87
2022-10-18T16:13:18.491Z,13.84
2022-10-18T16:15:44.846Z,13.78
2022-10-18T16:18:16.738Z,13.79
2022-10-18T16:20:43.950Z,13.65
2022-10-18T16:23:22.795Z,13.50
2022-10-18T16:25:50.021Z,13.44
2022-10-18T16:28:19.877Z,13.29
2022-10-18T16:30:53.149Z,13.21
2022-10-18T16:33:21.563Z,13.15
2022-10-18T16:35:48.426Z,12.93
2022-10-18T16:38:29.895Z,12.83
2022-10-18T16:40:59.099Z,12.68
2022-10-18T16:43:25.584Z,12.64
2022-10-18T16:45:53.768Z,12.64
2022-10-18T16:48:23.127Z,12.60
2022-10-18T16:50:50.285Z,12.54
2022-10-18T16:53:16.914Z,12.48
2022-10-18T16:55:43.596Z,12.35
2022-10-18T16:58:16.756Z,12.18
2022-10-18T17:00:44.131Z,12.06
2022-10-18T17:03:10.443Z,12.03
2022-10-18T17:05:36.772Z,11.95
2022-10-18T17:08:03.188Z,11.95
2022-10-18T17:10:29.498Z,11.90
2022-10-18T17:12:55.812Z,11.84
2022-10-18T17:15:22.179Z,11.69
2022-10-18T17:17:48.704Z,11.64
2022-10-18T17:20:24.003Z,11.60
2022-10-18T17:22:50.395Z,11.53
2022-10-18T17:25:17.803Z,11.44
2022-10-18T17:27:44.951Z,11.40
2022-10-18T17:30:12.932Z,11.38
2022-10-18T17:32:39.337Z,11.24
2022-10-18T17:35:06.204Z,11.18
2022-10-18T17:37:32.823Z,11.09
2022-10-18T17:39:59.336Z,11.04
2022-10-18T17:42:25.649Z,10.93
2022-10-18T17:44:54.276Z,10.87
2022-10-18T17:47:23.357Z,10.78
2022-10-18T17:49:49.691Z,10.67
2022-10-18T17:52:16.121Z,10.58
2022-10-18T17:54:42.411Z,10.51
2022-10-18T17:57:08.731Z,10.47
2022-10-18T17:59:35.088Z,10.41
2022-10-18T18:02:01.398Z,10.31
2022-10-18T18:04:27.705Z,10.15
2022-10-18T18:06:54.009Z,10.03
2022-10-18T18:09:20.434Z,9.99
2022-10-18T18:11:46.806Z,9.93
2022-10-18T18:14:13.269Z,9.88
2022-10-18T18:16:42.545Z,9.75
2022-10-18T18:19:10.284Z,9.81
2022-10-18T18:21:37.130Z,9.82
2022-10-18T18:24:03.737Z,9.73
2022-10-18T18:26:34.600Z,9.84
2022-10-18T18:31:37.755Z,9.76
2022-10-18T18:34:09.402Z,9.77
2022-10-18T18:36:35.982Z,9.70
2022-10-18T18:39:03.061Z,9.74
2022-10-18T18:41:29.361Z,9.72
2022-10-18T18:43:59.653Z,9.64
2022-10-18T18:46:28.787Z,9.66
2022-10-18T18:48:57.467Z,9.62
2022-10-18T18:51:23.835Z,9.55
2022-10-18T18:53:51.017Z,9.51
2022-10-18T18:56:23.126Z,9.49
2022-10-18T18:58:49.637Z,9.45
2022-10-18T19:01:18.792Z,9.39
2022-10-18T19:03:47.981Z,9.36
2022-10-18T19:06:36.613Z,9.33
2022-10-18T19:09:05.837Z,9.29
2022-10-18T19:11:35.126Z,9.26
2022-10-18T19:14:02.365Z,9.23
2022-10-18T19:16:33.189Z,9.20
2022-10-18T19:19:10.264Z,9.09
2022-10-18T19:21:48.066Z,9.07
2022-10-18T19:24:14.876Z,8.95
2022-10-18T19:26:59.270Z,8.89
2022-10-18T19:29:29.682Z,8.75
2022-10-18T19:31:59.168Z,8.70
2022-10-18T19:34:27.597Z,8.71
2022-10-18T19:36:54.880Z,8.65
2022-10-18T19:39:27.226Z,8.53
2022-10-18T19:41:55.710Z,8.43
2022-10-18T19:44:23.717Z,8.33
2022-10-18T19:46:50.531Z,8.22
2022-10-18T19:49:17.261Z,8.18
2022-10-18T19:51:44.140Z,8.15
2022-10-18T19:54:14.334Z,8.15
2022-10-18T19:56:41.145Z,8.14
2022-10-18T19:59:08.335Z,8.14
2022-10-18T20:01:34.833Z,8.10
2022-10-18T20:04:01.334Z,8.08
2022-10-18T20:06:27.642Z,8.03
2022-10-18T20:08:53.969Z,8.01
2022-10-18T20:11:23.504Z,7.99
2022-10-18T20:13:50.268Z,7.96
2022-10-18T20:16:20.126Z,7.92
2022-10-18T20:18:48.714Z,7.82
2022-10-18T20:21:16.848Z,7.74
2022-10-18T20:23:44.273Z,7.74
2022-10-18T20:26:18.034Z,7.67
2022-10-18T20:28:50.586Z,7.61
2022-10-18T20:31:19.046Z,7.57
2022-10-18T20:33:46.836Z,7.54
2022-10-18T20:36:15.767Z,7.49
2022-10-18T20:38:44.637Z,7.45
2022-10-18T20:41:14.256Z,7.41
2022-10-18T20:43:40.963Z,7.31
2022-10-18T20:46:07.813Z,7.32
2022-10-18T20:48:35.066Z,7.23
2022-10-18T20:51:09.989Z,7.15
2022-10-18T20:53:37.470Z,7.09
2022-10-18T20:56:08.579Z,6.99
2022-10-18T20:58:35.980Z,7.01
2022-10-18T21:01:11.237Z,6.93
2022-10-18T21:03:38.691Z,6.95
2022-10-18T21:06:18.659Z,6.87
2022-10-18T21:08:45.800Z,6.88
2022-10-18T21:11:13.739Z,6.87
2022-10-18T21:13:40.253Z,6.83
2022-10-18T21:16:06.958Z,6.83
2022-10-18T21:18:35.169Z,6.79
2022-10-18T21:21:09.888Z,6.78
2022-10-18T21:23:36.724Z,6.74
2022-10-18T21:26:03.175Z,6.68
2022-10-18T21:28:29.609Z,6.70
2022-10-18T21:30:55.921Z,6.68
2022-10-18T21:33:22.154Z,6.64
2022-10-18T21:35:48.506Z,6.57
2022-10-18T21:38:14.818Z,6.49
2022-10-18T21:40:41.094Z,6.47
2022-10-18T21:43:07.414Z,6.33
2022-10-18T21:45:33.700Z,6.33
2022-10-18T21:47:59.934Z,6.26
2022-10-18T21:50:26.253Z,6.14
2022-10-18T21:52:52.494Z,6.12
2022-10-18T21:55:18.810Z,6.03
2022-10-18T21:57:45.078Z,6.04
2022-10-18T22:00:12.219Z,5.99
2022-10-18T22:02:38.611Z,5.95
2022-10-18T22:05:08.281Z,5.93
2022-10-18T22:07:37.799Z,5.89
2022-10-18T22:10:04.500Z,5.88
2022-10-18T22:12:30.909Z,5.86
2022-10-18T22:14:57.890Z,5.79
2022-10-18T22:17:24.273Z,5.80
2022-10-18T22:19:50.665Z,5.79
2022-10-18T22:22:17.021Z,5.71
2022-10-18T22:24:43.333Z,5.72
2022-10-18T22:27:09.561Z,5.82
2022-10-18T22:29:35.912Z,5.78
2022-10-18T22:32:02.262Z,5.70
2022-10-18T22:34:28.546Z,5.71
2022-10-18T22:36:55.440Z,5.62
2022-10-18T22:39:22.017Z,5.66
2022-10-18T22:41:48.337Z,5.64
2022-10-18T22:44:14.871Z,5.62
2022-10-18T22:46:41.974Z,5.59
2022-10-18T22:49:08.587Z,5.58
2022-10-18T22:54:06.450Z,5.57
2022-10-18T22:56:32.843Z,5.56
2022-10-18T22:58:59.190Z,5.54
2022-10-18T23:01:25.450Z,5.50
2022-10-18T23:03:56.670Z,5.44
2022-10-18T23:06:28.873Z,5.42
2022-10-18T23:08:57.368Z,5.39
2022-10-18T23:11:25.394Z,5.32
2022-10-18T23:13:51.993Z,5.33
2022-10-18T23:16:19.171Z,5.29
2022-10-18T23:18:50.046Z,5.29
2022-10-18T23:21:16.397Z,5.24
2022-10-18T23:23:43.096Z,5.19
2022-10-18T23:26:14.624Z,5.09
2022-10-18T23:28:42.994Z,5.06
2022-10-18T23:31:14.874Z,5.04
2022-10-18T23:33:41.696Z,4.98
2022-10-18T23:36:08.925Z,4.94
2022-10-18T23:38:36.741Z,4.92
2022-10-18T23:41:03.849Z,4.88
2022-10-18T23:43:30.306Z,4.87
2022-10-18T23:45:56.717Z,4.82
2022-10-18T23:48:23.125Z,4.84
2022-10-18T23:50:49.628Z,4.80
2022-10-18T23:53:16.342Z,4.77
2022-10-18T23:56:10.803Z,4.75
2022-10-18T23:58:38.209Z,4.68
